Time;durP1;ratioP1;P1;durP2;ratioP2;P2;SDS_P1;SDS_P2;PMS_P1;PMS_P2;Temp;Humidity;BMP_temperature;BMP_pressure;BME280_temperature;BME280_humidity;BME280_pressure;Samples;Min_cycle;Max_cycle;Signal;HPM_P1;HPM_P2
2022/03/18 00:01:49;;;;;;;26.20;20.40;;;9.10;99.90;;;;;;5050058;28;20422;-83
2022/03/18 00:04:14;;;;;;;24.50;20.50;;;9.10;99.90;;;;;;5041478;28;20439;-83
2022/03/18 00:06:40;;;;;;;26.60;21.23;;;9.60;99.90;;;;;;5043693;28;20221;-84
2022/03/18 00:09:06;;;;;;;23.43;19.53;;;9.60;99.90;;;;;;5032485;28;20672;-81
2022/03/18 00:11:31;;;;;;;23.77;19.63;;;9.10;99.90;;;;;;5033692;28;20415;-82
2022/03/18 00:13:58;;;;;;;24.30;19.83;;;9.10;99.90;;;;;;5047030;28;20227;-83
2022/03/18 00:16:24;;;;;;;24.55;20.02;;;9.10;99.90;;;;;;5030276;28;20641;-84
2022/03/18 00:18:50;;;;;;;26.30;20.90;;;8.80;99.90;;;;;;5041359;28;20186;-83
2022/03/18 00:21:16;;;;;;;23.47;19.40;;;8.80;99.90;;;;;;5029021;28;20190;-83
2022/03/18 00:23:41;;;;;;;22.02;17.65;;;9.10;99.90;;;;;;5031335;28;20263;-84
2022/03/18 00:26:07;;;;;;;24.37;19.73;;;9.00;99.90;;;;;;5050797;28;20595;-84
2022/03/18 00:28:33;;;;;;;22.83;18.60;;;9.20;99.90;;;;;;5034810;28;20613;-83
2022/03/18 00:30:58;;;;;;;22.50;17.97;;;9.90;99.90;;;;;;5030532;28;20959;-84
2022/03/18 00:33:25;;;;;;;21.27;16.60;;;9.70;99.90;;;;;;5040139;28;20244;-83
2022/03/18 00:35:51;;;;;;;21.85;18.17;;;9.10;99.90;;;;;;5029044;28;20203;-82
2022/03/18 00:38:17;;;;;;;25.23;18.00;;;9.90;99.90;;;;;;5031354;28;20181;-83
2022/03/18 00:40:44;;;;;;;22.93;17.93;;;9.50;99.90;;;;;;5037617;28;20700;-83
2022/03/18 00:43:10;;;;;;;20.77;16.27;;;9.30;99.90;;;;;;5028948;28;20214;-80
2022/03/18 00:45:36;;;;;;;23.23;17.13;;;9.70;99.90;;;;;;5029664;28;20188;-82
2022/03/18 00:53:31;;;;;;;19.95;15.82;;;9.40;99.90;;;;;;5041447;28;20215;-83
2022/03/18 00:55:56;;;;;;;22.30;17.70;;;9.00;99.90;;;;;;5029671;28;20257;-83
2022/03/18 00:58:22;;;;;;;22.27;17.90;;;8.70;99.90;;;;;;5046308;28;20181;-82
2022/03/18 01:00:47;;;;;;;20.50;17.37;;;9.70;99.90;;;;;;5031124;28;20177;-82
2022/03/18 01:03:15;;;;;;;20.33;16.53;;;9.40;99.90;;;;;;5030876;28;20201;-83
2022/03/18 01:05:41;;;;;;;20.85;17.80;;;9.40;99.90;;;;;;5025900;28;20189;-83
2022/03/18 01:08:07;;;;;;;19.45;16.02;;;9.60;99.90;;;;;;5028792;28;20211;-82
2022/03/18 01:10:33;;;;;;;21.13;17.20;;;9.70;99.90;;;;;;5028055;28;20269;-83
2022/03/18 01:12:58;;;;;;;21.63;17.40;;;9.40;99.90;;;;;;5031579;28;20665;-83
2022/03/18 01:15:24;;;;;;;18.07;14.73;;;9.60;99.90;;;;;;5025939;28;20966;-83
2022/03/18 01:17:49;;;;;;;18.77;15.57;;;8.70;99.90;;;;;;5024566;28;20174;-83
2022/03/18 01:20:15;;;;;;;16.90;14.73;;;8.90;99.90;;;;;;5023579;28;20201;-83
2022/03/18 01:22:40;;;;;;;18.27;15.43;;;9.70;99.90;;;;;;5037295;28;20243;-83
2022/03/18 01:25:06;;;;;;;19.30;15.87;;;9.30;99.90;;;;;;5021828;28;20292;-83
2022/03/18 01:27:33;;;;;;;17.37;15.20;;;9.40;99.90;;;;;;5029523;28;20284;-83
2022/03/18 01:29:58;;;;;;;20.33;15.82;;;9.70;99.90;;;;;;5038006;28;20587;-82
2022/03/18 01:32:24;;;;;;;18.00;15.50;;;8.90;99.90;;;;;;5029737;28;20677;-83
2022/03/18 01:34:49;;;;;;;17.60;14.80;;;9.30;99.90;;;;;;5013784;28;20189;-83
2022/03/18 01:37:15;;;;;;;17.60;14.90;;;9.00;99.90;;;;;;5027898;28;20183;-83
2022/03/18 01:39:41;;;;;;;18.70;14.40;;;8.80;99.90;;;;;;5031523;28;20186;-84
2022/03/18 01:42:07;;;;;;;17.10;14.67;;;8.90;99.90;;;;;;5026120;28;20407;-83
2022/03/18 01:44:39;;;;;;;16.70;13.60;;;9.20;99.90;;;;;;5031659;28;20642;-83
2022/03/18 01:47:05;;;;;;;19.63;14.60;;;9.30;99.90;;;;;;5038000;28;20463;-83
2022/03/18 01:49:30;;;;;;;17.80;15.20;;;9.20;99.90;;;;;;5043420;28;20198;-83
2022/03/18 01:51:56;;;;;;;16.43;13.70;;;9.50;99.90;;;;;;5030508;28;20190;-83
2022/03/18 01:57:06;;;;;;;16.27;13.15;;;9.50;99.90;;;;;;5043991;28;20215;-83
2022/03/18 01:59:32;;;;;;;18.23;14.50;;;9.20;99.90;;;;;;5036036;28;20189;-83
2022/03/18 02:01:58;;;;;;;15.93;13.25;;;9.10;99.90;;;;;;5023866;28;20194;-83
2022/03/18 02:04:24;;;;;;;19.27;15.00;;;9.10;99.90;;;;;;5020417;28;20209;-83
2022/03/18 02:06:50;;;;;;;19.23;15.15;;;9.10;99.90;;;;;;5044440;28;20683;-82
2022/03/18 02:09:16;;;;;;;17.92;13.95;;;9.40;99.90;;;;;;5031708;28;20247;-83
2022/03/18 02:11:43;;;;;;;15.13;13.43;;;8.80;99.90;;;;;;5044267;28;20259;-83
2022/03/18 02:14:08;;;;;;;17.08;13.55;;;9.20;99.90;;;;;;5031026;28;20202;-82
2022/03/18 02:16:34;;;;;;;17.47;14.00;;;8.90;99.90;;;;;;5030466;28;20170;-83
2022/03/18 02:19:00;;;;;;;16.97;13.03;;;9.20;99.90;;;;;;5024062;28;20388;-83
2022/03/18 02:21:30;;;;;;;18.10;14.10;;;9.80;99.90;;;;;;5027255;28;20410;-83
2022/03/18 02:23:57;;;;;;;18.38;13.77;;;9.40;99.90;;;;;;5031262;28;20443;-83
2022/03/18 02:26:23;;;;;;;15.30;13.20;;;9.50;99.90;;;;;;5028030;28;20189;-83
2022/03/18 02:28:49;;;;;;;15.73;12.63;;;9.80;99.90;;;;;;5027234;28;20205;-83
2022/03/18 02:31:14;;;;;;;16.57;13.37;;;9.40;99.90;;;;;;5032710;28;20571;-82
2022/03/18 02:33:40;;;;;;;17.70;14.40;;;9.10;99.90;;;;;;5023669;28;20212;-82
2022/03/18 02:36:05;;;;;;;13.80;12.10;;;9.50;99.90;;;;;;5025546;28;20197;-82
2022/03/18 02:38:31;;;;;;;16.07;13.53;;;9.40;99.90;;;;;;5034241;28;20232;-81
2022/03/18 02:40:57;;;;;;;17.20;13.90;;;9.30;99.90;;;;;;5029308;28;20186;-83
2022/03/18 02:43:22;;;;;;;14.70;12.20;;;9.00;99.90;;;;;;5030102;28;20676;-82
2022/03/18 02:45:48;;;;;;;15.83;13.43;;;9.10;99.90;;;;;;5034009;28;20314;-82
2022/03/18 02:48:13;;;;;;;16.53;13.30;;;8.70;99.90;;;;;;5031749;28;20665;-82
2022/03/18 02:50:39;;;;;;;16.17;14.30;;;9.10;99.90;;;;;;5019587;28;20174;-83
2022/03/18 02:53:04;;;;;;;18.80;14.60;;;9.50;99.90;;;;;;5038010;28;20263;-83
2022/03/18 02:55:30;;;;;;;17.70;13.13;;;9.00;99.90;;;;;;5048477;28;20653;-83
2022/03/18 02:57:56;;;;;;;15.67;12.73;;;9.50;99.90;;;;;;5033265;28;20249;-83
2022/03/18 03:00:25;;;;;;;15.35;11.18;;;8.90;99.90;;;;;;5040555;28;20193;-82
2022/03/18 03:02:51;;;;;;;16.98;13.50;;;8.70;99.90;;;;;;5030948;28;20209;-82
2022/03/18 03:08:01;;;;;;;18.30;13.45;;;8.60;99.90;;;;;;5046931;28;20550;-82
2022/03/18 03:10:29;;;;;;;16.00;12.83;;;9.00;99.90;;;;;;5032667;28;20205;-83
2022/03/18 03:12:59;;;;;;;14.68;12.90;;;8.90;99.90;;;;;;5031290;28;20456;-83
2022/03/18 03:15:25;;;;;;;21.58;15.43;;;9.20;99.90;;;;;;5032562;28;20205;-83
2022/03/18 03:17:51;;;;;;;16.88;13.60;;;8.80;99.90;;;;;;5034136;28;20178;-83
2022/03/18 03:20:17;;;;;;;14.77;12.63;;;8.70;99.90;;;;;;5030128;28;20185;-81
2022/03/18 03:22:42;;;;;;;14.40;12.20;;;9.20;99.90;;;;;;5019867;28;20220;-83
2022/03/18 03:25:08;;;;;;;14.40;11.83;;;8.90;99.90;;;;;;5029404;28;20458;-83
2022/03/18 03:27:33;;;;;;;17.13;13.00;;;8.80;99.90;;;;;;5034713;28;20255;-82
2022/03/18 03:30:01;;;;;;;17.67;13.30;;;9.20;99.90;;;;;;5033752;28;20651;-83
2022/03/18 03:32:27;;;;;;;14.45;11.80;;;9.10;99.90;;;;;;5043974;28;20190;-83
2022/03/18 03:34:57;;;;;;;17.38;12.35;;;9.00;99.90;;;;;;5024923;28;20178;-83
2022/03/18 03:37:23;;;;;;;15.05;12.57;;;8.90;99.90;;;;;;5023898;28;20190;-83
2022/03/18 03:39:50;;;;;;;15.13;11.82;;;8.80;99.90;;;;;;5050022;28;20248;-83
2022/03/18 03:42:16;;;;;;;14.88;12.45;;;8.90;99.90;;;;;;5032767;28;20554;-83
2022/03/18 03:44:42;;;;;;;14.75;12.07;;;8.90;99.90;;;;;;5042440;28;20206;-82
2022/03/18 03:47:07;;;;;;;15.07;11.80;;;9.10;99.90;;;;;;5029573;28;20226;-83
2022/03/18 03:49:33;;;;;;;14.20;12.40;;;9.00;99.90;;;;;;5032106;28;20573;-82
2022/03/18 03:51:58;;;;;;;16.20;11.93;;;8.70;99.90;;;;;;5032677;28;20188;-82
2022/03/18 03:54:24;;;;;;;16.03;12.80;;;8.80;99.90;;;;;;5033576;28;20212;-83
2022/03/18 03:56:49;;;;;;;14.20;11.73;;;9.50;99.90;;;;;;5031525;28;20562;-82
2022/03/18 03:59:15;;;;;;;16.90;13.40;;;8.70;99.90;;;;;;5012421;28;20228;-82
2022/03/18 04:01:40;;;;;;;17.73;12.87;;;8.90;99.90;;;;;;5037266;28;20670;-82
2022/03/18 04:04:06;;;;;;;16.07;13.07;;;9.10;99.90;;;;;;5026821;28;20213;-84
2022/03/18 04:06:32;;;;;;;16.10;13.77;;;9.20;99.90;;;;;;5033322;28;20182;-82
2022/03/18 04:08:58;;;;;;;15.63;13.40;;;9.30;99.90;;;;;;5032832;28;20209;-83
2022/03/18 04:11:23;;;;;;;15.20;12.23;;;9.00;99.90;;;;;;5033048;28;20189;-82
2022/03/18 04:13:49;;;;;;;15.70;13.20;;;8.80;99.90;;;;;;5025663;28;20292;-82
2022/03/18 04:16:15;;;;;;;14.73;12.37;;;9.20;99.90;;;;;;5039527;28;20221;-83
2022/03/18 04:18:41;;;;;;;15.82;12.95;;;9.30;99.90;;;;;;5029804;28;20189;-83
2022/03/18 04:21:07;;;;;;;16.97;13.57;;;8.70;99.90;;;;;;5030611;28;20485;-83
2022/03/18 04:23:32;;;;;;;15.93;12.53;;;9.20;99.90;;;;;;5033277;28;20297;-83
2022/03/18 04:25:58;;;;;;;16.97;12.77;;;9.30;99.90;;;;;;5033005;28;20186;-82
2022/03/18 04:28:23;;;;;;;15.13;11.60;;;9.60;99.90;;;;;;5030711;28;20187;-81
2022/03/18 04:30:49;;;;;;;15.33;12.50;;;9.40;99.90;;;;;;5024862;28;20205;-81
2022/03/18 04:33:14;;;;;;;13.60;11.40;;;9.30;99.90;;;;;;5030665;28;20205;-81
2022/03/18 04:35:40;;;;;;;16.10;13.00;;;9.60;99.90;;;;;;5023404;28;20504;-82
2022/03/18 04:38:06;;;;;;;15.03;12.53;;;8.80;99.90;;;;;;5029608;28;20281;-83
2022/03/18 04:40:32;;;;;;;15.68;13.30;;;9.30;99.90;;;;;;5028426;28;20270;-83
2022/03/18 04:42:58;;;;;;;15.93;12.70;;;9.30;99.90;;;;;;5026480;28;20375;-81
2022/03/18 04:45:23;;;;;;;14.37;11.90;;;9.40;99.90;;;;;;5028326;28;20194;-81
2022/03/18 04:47:49;;;;;;;15.90;12.80;;;8.70;99.90;;;;;;5032543;28;20250;-82
2022/03/18 04:50:15;;;;;;;16.40;12.10;;;8.90;99.90;;;;;;5022892;28;20284;-82
2022/03/18 04:52:40;;;;;;;15.60;12.13;;;8.90;99.90;;;;;;5032582;28;20526;-82
2022/03/18 04:55:06;;;;;;;14.50;12.10;;;8.70;99.90;;;;;;5030403;28;20185;-82
2022/03/18 04:57:32;;;;;;;17.80;13.05;;;9.30;99.90;;;;;;5047976;28;20178;-82
2022/03/18 04:59:58;;;;;;;13.17;11.60;;;9.00;99.90;;;;;;5022782;28;20197;-81
2022/03/18 05:02:28;;;;;;;13.90;11.30;;;9.30;99.90;;;;;;5031570;28;20186;-83
2022/03/18 05:04:54;;;;;;;14.05;11.93;;;9.20;99.90;;;;;;5042390;28;20514;-83
2022/03/18 05:07:19;;;;;;;16.50;12.40;;;9.30;99.90;;;;;;5023659;28;20854;-83
2022/03/18 05:09:46;;;;;;;17.23;12.93;;;9.20;99.90;;;;;;5047733;28;20227;-82
2022/03/18 05:12:13;;;;;;;17.80;13.73;;;9.20;99.90;;;;;;5045502;28;20235;-83
2022/03/18 05:14:40;;;;;;;18.33;13.02;;;9.20;99.90;;;;;;5034844;28;20209;-82
2022/03/18 05:17:10;;;;;;;15.00;12.55;;;9.60;99.90;;;;;;5029075;28;21506;-81
2022/03/18 05:19:37;;;;;;;17.75;13.45;;;9.50;99.90;;;;;;5033882;28;20190;-82
2022/03/18 05:22:03;;;;;;;16.70;13.20;;;8.80;99.90;;;;;;5028218;28;20534;-81
2022/03/18 05:24:29;;;;;;;14.13;11.73;;;9.00;99.90;;;;;;5027165;28;20570;-81
2022/03/18 05:26:55;;;;;;;16.83;13.50;;;9.10;99.90;;;;;;5027347;28;20296;-80
2022/03/18 05:29:21;;;;;;;17.65;13.50;;;8.90;99.90;;;;;;5027367;28;20308;-82
2022/03/18 05:31:47;;;;;;;17.40;13.70;;;8.90;99.90;;;;;;5046696;28;20256;-82
2022/03/18 05:34:14;;;;;;;15.25;13.05;;;8.90;99.90;;;;;;5022469;28;20464;-80
2022/03/18 05:36:40;;;;;;;16.70;13.43;;;8.40;99.90;;;;;;5027178;28;20331;-82
2022/03/18 05:39:06;;;;;;;18.63;14.00;;;9.00;99.90;;;;;;5029578;28;20221;-83
2022/03/18 05:41:32;;;;;;;17.47;12.87;;;8.60;99.90;;;;;;5025929;28;20186;-81
2022/03/18 05:43:58;;;;;;;15.50;12.88;;;8.90;99.90;;;;;;5026290;28;20438;-82
2022/03/18 05:46:24;;;;;;;15.77;12.23;;;8.80;99.90;;;;;;5046577;28;20189;-83
2022/03/18 05:48:49;;;;;;;19.10;15.20;;;8.40;99.90;;;;;;5035811;28;20210;-80
2022/03/18 05:51:15;;;;;;;15.97;12.40;;;9.00;99.90;;;;;;5047109;28;20261;-82
2022/03/18 05:53:40;;;;;;;16.00;13.10;;;9.30;99.90;;;;;;5027111;28;20254;-82
2022/03/18 05:58:50;;;;;;;18.00;13.20;;;9.40;99.90;;;;;;5039305;28;20719;-82
2022/03/18 06:01:16;;;;;;;19.10;14.57;;;9.30;99.90;;;;;;5027722;28;20190;-83
2022/03/18 06:03:42;;;;;;;17.43;13.70;;;9.00;99.90;;;;;;5030497;28;20531;-83
2022/03/18 06:06:08;;;;;;;18.60;14.00;;;9.00;99.90;;;;;;5044282;28;20185;-83
2022/03/18 06:12:00;;;;;;;18.25;14.55;;;8.80;99.90;;;;;;5049506;28;20413;-83
2022/03/18 06:14:06;;;;;;;19.88;14.95;;;8.40;99.90;;;;;;5022153;28;20268;-83
2022/03/18 06:16:31;;;;;;;20.90;14.47;;;9.20;99.90;;;;;;5034186;28;20574;-82
2022/03/18 06:18:57;;;;;;;20.83;15.30;;;8.70;99.90;;;;;;5027765;28;20182;-82
2022/03/18 06:21:23;;;;;;;18.20;15.10;;;8.50;99.90;;;;;;5050500;28;20228;-83
2022/03/18 06:23:49;;;;;;;21.50;16.90;;;8.70;99.90;;;;;;5046110;28;20251;-83
2022/03/18 06:26:14;;;;;;;18.90;14.47;;;8.60;99.90;;;;;;5047423;28;20469;-83
2022/03/18 06:28:40;;;;;;;20.00;15.03;;;8.60;99.90;;;;;;5047182;28;20445;-81
2022/03/18 06:31:06;;;;;;;20.70;15.97;;;8.90;99.90;;;;;;5029894;28;20182;-83
2022/03/18 06:33:32;;;;;;;19.95;16.13;;;9.00;99.90;;;;;;5025174;28;20204;-83
2022/03/18 06:35:58;;;;;;;19.90;15.43;;;8.90;99.90;;;;;;5031536;28;20476;-82
2022/03/18 06:38:24;;;;;;;17.50;14.43;;;8.60;99.90;;;;;;5026914;28;20760;-82
2022/03/18 06:40:50;;;;;;;24.40;15.90;;;9.10;99.90;;;;;;5040525;28;20523;-81
2022/03/18 06:43:15;;;;;;;22.33;15.32;;;9.20;99.90;;;;;;5022892;28;20273;-81
2022/03/18 06:45:42;;;;;;;25.40;15.70;;;9.00;99.90;;;;;;5031766;28;20194;-81
2022/03/18 06:48:07;;;;;;;25.13;18.23;;;9.70;99.90;;;;;;5046998;28;20218;-82
2022/03/18 06:50:34;;;;;;;18.37;14.70;;;9.40;99.90;;;;;;5045795;28;20565;-80
2022/03/18 06:53:00;;;;;;;20.77;15.70;;;9.20;99.90;;;;;;5033465;28;20863;-83
2022/03/18 06:55:26;;;;;;;20.50;15.88;;;9.10;99.90;;;;;;5029198;28;20670;-82
2022/03/18 06:57:51;;;;;;;21.67;16.30;;;9.30;99.90;;;;;;5027022;28;20212;-82
2022/03/18 07:00:17;;;;;;;21.07;15.80;;;9.10;99.90;;;;;;5031871;28;20587;-83
2022/03/18 07:02:43;;;;;;;14.87;10.80;;;9.40;99.90;;;;;;5031894;28;20202;-82
2022/03/18 07:05:09;;;;;;;21.83;15.90;;;8.80;99.90;;;;;;5023218;28;20209;-82
2022/03/18 07:07:34;;;;;;;21.13;16.73;;;9.90;99.90;;;;;;5031742;28;20183;-87
2022/03/18 07:10:00;;;;;;;17.80;13.70;;;10.10;99.90;;;;;;5033392;28;20220;-85
2022/03/18 07:12:27;;;;;;;21.43;16.47;;;9.90;99.90;;;;;;5031817;28;20183;-88
2022/03/18 07:14:52;;;;;;;21.95;16.90;;;10.60;99.90;;;;;;5020993;28;20178;-89
2022/03/18 07:20:02;;;;;;;22.77;17.23;;;10.20;99.90;;;;;;5046299;28;20196;-87
2022/03/18 07:22:28;;;;;;;23.30;17.48;;;10.10;99.90;;;;;;5028357;28;20186;-85
2022/03/18 07:24:53;;;;;;;23.67;17.40;;;10.30;99.90;;;;;;5034359;28;20204;-85
2022/03/18 07:27:19;;;;;;;24.43;18.40;;;9.90;99.90;;;;;;5027015;28;20587;-86
2022/03/18 07:29:45;;;;;;;25.13;18.13;;;9.80;99.90;;;;;;5033910;28;20579;-86
2022/03/18 07:32:10;;;;;;;26.00;18.33;;;9.50;99.90;;;;;;5031698;28;20197;-87
2022/03/18 07:34:35;;;;;;;23.07;18.10;;;9.70;99.90;;;;;;5028958;28;20202;-80
2022/03/18 07:37:01;;;;;;;25.33;18.43;;;9.80;99.90;;;;;;5046226;28;20244;-80
2022/03/18 07:39:26;;;;;;;23.40;17.30;;;10.20;99.90;;;;;;5042918;28;20201;-79
2022/03/18 07:41:52;;;;;;;25.20;18.57;;;9.90;99.90;;;;;;5027187;28;20190;-79
2022/03/18 07:44:18;;;;;;;23.43;17.67;;;10.30;99.90;;;;;;5016596;28;20202;-79
2022/03/18 07:46:43;;;;;;;23.97;19.70;;;10.20;99.90;;;;;;5046847;28;20224;-80
2022/03/18 07:49:09;;;;;;;24.40;17.97;;;9.80;99.90;;;;;;5031632;28;20213;-79
2022/03/18 07:51:35;;;;;;;24.27;20.20;;;9.80;99.90;;;;;;5023156;28;20178;-83
2022/03/18 07:54:01;;;;;;;26.60;19.40;;;9.90;99.90;;;;;;5025244;28;20198;-83
2022/03/18 07:56:27;;;;;;;27.27;20.77;;;10.10;99.90;;;;;;5027338;28;20448;-83
2022/03/18 07:58:54;;;;;;;26.07;20.07;;;9.90;99.90;;;;;;5041926;28;20190;-83
2022/03/18 08:01:20;;;;;;;30.50;21.95;;;10.50;99.90;;;;;;5032053;28;20178;-83
2022/03/18 08:03:46;;;;;;;28.63;21.70;;;10.50;99.90;;;;;;5026896;28;20427;-82
2022/03/18 08:06:11;;;;;;;30.93;21.60;;;10.10;99.90;;;;;;5023679;28;20202;-81
2022/03/18 08:08:36;;;;;;;27.30;22.20;;;9.90;99.90;;;;;;5039973;28;20190;-83
2022/03/18 08:11:03;;;;;;;29.37;22.80;;;10.40;99.90;;;;;;5025058;28;20186;-81
2022/03/18 08:13:29;;;;;;;30.55;23.48;;;10.50;99.90;;;;;;5021422;28;20202;-81
2022/03/18 08:15:55;;;;;;;29.80;22.23;;;10.00;99.90;;;;;;5021971;28;20267;-82
2022/03/18 08:18:21;;;;;;;32.43;22.67;;;10.00;99.90;;;;;;5025150;28;20970;-88
2022/03/18 08:20:53;;;;;;;29.87;23.30;;;9.90;99.90;;;;;;5031106;28;20404;-85
2022/03/18 08:23:19;;;;;;;26.80;21.23;;;10.50;99.90;;;;;;5029501;28;20210;-86
2022/03/18 08:25:45;;;;;;;30.52;23.65;;;10.30;99.90;;;;;;5027041;28;20352;-83
2022/03/18 08:28:11;;;;;;;31.00;22.80;;;10.50;99.90;;;;;;5022012;28;20558;-82
2022/03/18 08:30:38;;;;;;;31.63;22.03;;;9.90;99.90;;;;;;5044299;28;20222;-88
2022/03/18 08:33:04;;;;;;;29.40;21.20;;;10.50;99.90;;;;;;5029677;28;20456;-88
2022/03/18 08:35:30;;;;;;;27.83;22.90;;;10.10;99.90;;;;;;5025858;28;20312;-85
2022/03/18 08:37:58;;;;;;;31.17;23.90;;;10.10;99.90;;;;;;5031376;28;20188;-84
2022/03/18 08:40:29;;;;;;;28.63;22.80;;;9.60;99.90;;;;;;5026318;28;20199;-83
2022/03/18 08:42:56;;;;;;;31.52;22.40;;;10.20;99.90;;;;;;5023814;28;20296;-82
2022/03/18 08:45:22;;;;;;;28.50;22.10;;;10.10;99.90;;;;;;5025870;28;20188;-83
2022/03/18 08:47:48;;;;;;;28.38;20.42;;;10.30;99.90;;;;;;5027489;28;20222;-85
2022/03/18 08:50:14;;;;;;;30.70;23.00;;;10.60;99.90;;;;;;5026826;28;20261;-85
2022/03/18 08:52:40;;;;;;;26.92;20.60;;;10.90;99.90;;;;;;5032224;28;20439;-86
2022/03/18 08:55:07;;;;;;;27.23;20.35;;;10.80;99.90;;;;;;5026667;28;20255;-84
2022/03/18 08:57:37;;;;;;;29.08;21.42;;;10.50;99.90;;;;;;5017361;28;20184;-85
2022/03/18 09:00:05;;;;;;;29.27;21.50;;;10.40;99.90;;;;;;5031841;28;20232;-85
2022/03/18 09:02:31;;;;;;;28.73;19.85;;;10.70;99.90;;;;;;5026462;28;20186;-85
2022/03/18 09:04:56;;;;;;;27.70;20.93;;;10.60;99.90;;;;;;5028678;28;20800;-85
2022/03/18 09:07:22;;;;;;;25.90;18.90;;;10.90;99.90;;;;;;5029366;28;20270;-84
2022/03/18 09:09:47;;;;;;;27.23;20.20;;;10.90;99.90;;;;;;5048684;28;20569;-82
2022/03/18 09:12:15;;;;;;;25.40;19.03;;;10.70;99.90;;;;;;5026318;28;20185;-76
2022/03/18 09:14:41;;;;;;;24.48;18.08;;;10.90;99.90;;;;;;5037324;28;20217;-86
2022/03/18 09:17:07;;;;;;;24.47;18.93;;;10.70;99.90;;;;;;5031370;28;20182;-80
2022/03/18 09:19:34;;;;;;;25.57;20.00;;;10.50;99.90;;;;;;5034879;28;20200;-83
2022/03/18 09:22:00;;;;;;;26.75;20.75;;;10.40;99.90;;;;;;5039170;28;20688;-83
2022/03/18 09:24:26;;;;;;;23.57;18.43;;;10.40;99.90;;;;;;5028657;28;20210;-84
2022/03/18 09:26:51;;;;;;;24.23;19.53;;;10.30;99.90;;;;;;5048439;28;20252;-85
2022/03/18 09:29:17;;;;;;;23.10;17.33;;;10.40;99.90;;;;;;5026722;28;20637;-84
2022/03/18 09:31:42;;;;;;;23.30;18.43;;;10.50;99.90;;;;;;5028076;28;20189;-84
2022/03/18 09:34:08;;;;;;;21.60;17.67;;;10.40;99.90;;;;;;5024286;28;20207;-83
2022/03/18 09:36:33;;;;;;;25.03;18.97;;;10.50;99.90;;;;;;5023271;28;20195;-84
2022/03/18 09:38:59;;;;;;;21.33;17.70;;;10.80;99.90;;;;;;5037846;28;20220;-84
2022/03/18 09:41:25;;;;;;;23.40;17.20;;;10.70;99.90;;;;;;5033142;28;20654;-84
2022/03/18 09:43:51;;;;;;;21.42;17.83;;;10.90;99.90;;;;;;5035092;28;20743;-84
2022/03/18 09:46:19;;;;;;;25.40;18.53;;;11.50;99.90;;;;;;5037818;28;20199;-82
2022/03/18 09:48:45;;;;;;;23.48;18.52;;;11.30;99.80;;;;;;5035155;28;20194;-83
2022/03/18 09:51:11;;;;;;;24.63;18.50;;;;;;;;;;5034213;28;20182;-84
2022/03/18 09:53:36;;;;;;;24.38;18.25;;;11.20;98.80;;;;;;5051226;28;20245;-78
2022/03/18 09:56:03;;;;;;;25.47;19.40;;;11.30;98.90;;;;;;5049365;28;20186;-81
2022/03/18 09:58:29;;;;;;;22.67;17.60;;;11.60;98.70;;;;;;5040081;28;20183;-82
2022/03/18 10:00:58;;;;;;;25.77;18.70;;;11.80;98.60;;;;;;5046301;28;20312;-85
2022/03/18 10:03:34;;;;;;;24.77;19.20;;;11.60;98.30;;;;;;5049941;28;20218;-81
2022/03/18 10:06:00;;;;;;;23.40;17.98;;;11.70;98.00;;;;;;5045268;28;20715;-84
2022/03/18 10:08:47;;;;;;;26.23;18.27;;;12.00;97.80;;;;;;5033653;28;20206;-83
2022/03/18 10:11:18;;;;;;;24.33;19.40;;;12.10;97.40;;;;;;5030567;28;20441;-84
2022/03/18 10:14:04;;;;;;;23.95;17.90;;;12.60;96.40;;;;;;5034060;28;20206;-83
2022/03/18 10:16:34;;;;;;;22.45;18.48;;;13.50;94.60;;;;;;5040188;28;20634;-81
2022/03/18 10:19:01;;;;;;;23.77;18.45;;;13.50;93.70;;;;;;5029688;28;20185;-83
2022/03/18 10:21:28;;;;;;;24.40;18.05;;;13.50;93.30;;;;;;5037683;28;20296;-84
2022/03/18 10:24:12;;;;;;;23.63;18.42;;;13.80;94.30;;;;;;5034739;28;20201;-84
2022/03/18 10:26:42;;;;;;;26.77;18.35;;;13.90;93.90;;;;;;5048225;28;20338;-83
2022/03/18 10:29:11;;;;;;;22.30;18.25;;;13.60;93.20;;;;;;5045761;28;20231;-83
2022/03/18 10:31:39;;;;;;;21.05;16.95;;;13.70;93.80;;;;;;5048233;28;20174;-82
2022/03/18 10:37:12;;;;;;;24.90;18.38;;;13.30;92.60;;;;;;5041359;28;20208;-84
2022/03/18 10:39:39;;;;;;;23.13;17.70;;;13.60;91.60;;;;;;5030224;28;20656;-83
2022/03/18 10:42:12;;;;;;;24.35;18.50;;;13.90;92.60;;;;;;5025262;28;20252;-83
2022/03/18 10:44:51;;;;;;;30.35;19.27;;;12.80;93.00;;;;;;5029958;28;20205;-81
2022/03/18 10:47:33;;;;;;;29.92;21.00;;;13.20;93.50;;;;;;5033039;28;20536;-84
2022/03/18 10:50:14;;;;;;;25.35;19.80;;;13.10;93.50;;;;;;5018768;28;20205;-78
2022/03/18 10:52:46;;;;;;;25.05;19.52;;;13.70;93.40;;;;;;5032681;28;20182;-78
2022/03/18 10:55:25;;;;;;;24.42;19.20;;;13.90;92.40;;;;;;5030570;28;20265;-79
2022/03/18 10:57:56;;;;;;;21.80;19.50;;;14.20;92.50;;;;;;5052346;28;20638;-79
2022/03/18 11:00:25;;;;;;;22.13;19.38;;;14.30;91.80;;;;;;5041844;28;20614;-78
2022/03/18 11:02:52;;;;;;;23.08;18.77;;;14.90;90.90;;;;;;5037962;28;20201;-78
2022/03/18 11:05:20;;;;;;;23.33;19.02;;;14.90;90.40;;;;;;5020394;28;20225;-78
2022/03/18 11:07:46;;;;;;;25.30;19.75;;;15.20;90.70;;;;;;5043830;28;20198;-78
2022/03/18 11:13:02;;;;;;;24.02;20.17;;;15.10;90.20;;;;;;5043107;28;20216;-79
2022/03/18 11:15:30;;;;;;;24.40;20.27;;;14.70;89.60;;;;;;5048118;28;20559;-77
2022/03/18 11:17:57;;;;;;;23.38;19.92;;;15.20;90.10;;;;;;5048098;28;20181;-78
2022/03/18 11:20:26;;;;;;;23.75;20.83;;;14.70;90.10;;;;;;5043119;28;20258;-78
2022/03/18 11:22:52;;;;;;;25.17;20.45;;;14.40;90.10;;;;;;5046111;28;20556;-78
2022/03/18 11:25:19;;;;;;;29.50;20.48;;;15.20;90.40;;;;;;5049083;28;20186;-78
2022/03/18 11:27:46;;;;;;;22.95;19.95;;;15.30;90.30;;;;;;5051113;28;20205;-78
2022/03/18 11:30:22;;;;;;;25.02;20.90;;;14.90;91.00;;;;;;5032321;28;20210;-79
2022/03/18 11:33:06;;;;;;;25.63;20.30;;;14.60;90.80;;;;;;5036589;28;20411;-78
2022/03/18 11:35:50;;;;;;;27.48;20.92;;;14.20;90.80;;;;;;5042061;28;20189;-84
2022/03/18 11:38:28;;;;;;;27.00;20.25;;;14.50;90.80;;;;;;5030792;28;20288;-83
2022/03/18 11:40:58;;;;;;;28.02;21.90;;;14.80;91.80;;;;;;5049948;28;20539;-85
2022/03/18 11:43:42;;;;;;;22.55;20.13;;;14.70;91.50;;;;;;5025724;28;20224;-81
2022/03/18 11:46:16;;;;;;;24.90;20.27;;;14.40;91.70;;;;;;5050209;28;20185;-83
2022/03/18 11:48:49;;;;;;;21.75;19.45;;;14.80;90.80;;;;;;5023432;28;20194;-82
2022/03/18 11:51:46;;;;;;;24.63;21.27;;;14.90;91.30;;;;;;5029884;28;20272;-81
2022/03/18 11:54:16;;;;;;;25.90;21.02;;;14.50;91.30;;;;;;5027124;28;20297;-83
2022/03/18 11:56:45;;;;;;;22.95;20.42;;;15.00;91.70;;;;;;5031385;28;20178;-81
2022/03/18 11:59:29;;;;;;;27.38;20.17;;;14.70;91.60;;;;;;5026089;28;20194;-81
2022/03/18 12:01:55;;;;;;;23.92;20.02;;;14.60;90.70;;;;;;5031241;28;20197;-81
2022/03/18 12:04:33;;;;;;;22.53;20.00;;;14.40;90.90;;;;;;5026990;28;20202;-83
2022/03/18 12:07:24;;;;;;;22.77;19.83;;;14.10;90.50;;;;;;5029743;28;20234;-80
2022/03/18 12:10:03;;;;;;;27.50;21.70;;;14.70;90.90;;;;;;5044130;28;20292;-83
2022/03/18 12:12:41;;;;;;;31.00;22.63;;;14.30;90.70;;;;;;5024074;28;20234;-82
2022/03/18 12:15:17;;;;;;;27.90;22.15;;;14.50;91.60;;;;;;5030275;28;20192;-86
2022/03/18 12:17:51;;;;;;;25.10;22.13;;;14.60;91.30;;;;;;5029806;28;20266;-86
2022/03/18 12:20:22;;;;;;;24.90;21.20;;;14.50;91.20;;;;;;5029548;28;20354;-84
2022/03/18 12:22:50;;;;;;;25.10;19.88;;;14.40;90.70;;;;;;5030226;28;20214;-85
2022/03/18 12:25:16;;;;;;;27.88;21.20;;;14.40;90.60;;;;;;5032031;28;21770;-86
2022/03/18 12:27:44;;;;;;;26.17;20.55;;;14.60;91.20;;;;;;5030361;28;20185;-86
2022/03/18 12:30:12;;;;;;;25.30;20.90;;;13.50;91.20;;;;;;5026419;28;20300;-85
2022/03/18 12:32:40;;;;;;;27.20;23.15;;;14.10;91.70;;;;;;5032780;28;20186;-86
2022/03/18 12:35:06;;;;;;;26.08;21.70;;;13.30;91.90;;;;;;5026471;28;20197;-84
2022/03/18 12:37:34;;;;;;;25.25;21.67;;;13.80;92.50;;;;;;5023351;28;20237;-83
2022/03/18 12:40:06;;;;;;;28.80;21.83;;;13.50;92.10;;;;;;5044838;28;20174;-81
2022/03/18 12:42:54;;;;;;;26.63;21.23;;;14.00;92.00;;;;;;5040350;28;20182;-82
2022/03/18 12:45:39;;;;;;;26.02;21.05;;;13.80;91.80;;;;;;5033061;28;20275;-84
2022/03/18 12:48:09;;;;;;;26.92;21.90;;;13.80;91.90;;;;;;5046584;28;20495;-84
2022/03/18 12:50:37;;;;;;;27.38;23.05;;;14.00;91.70;;;;;;5022658;28;20203;-82
2022/03/18 12:53:17;;;;;;;26.38;21.80;;;13.80;91.80;;;;;;5044408;28;20319;-84
2022/03/18 12:55:45;;;;;;;24.73;21.60;;;13.60;91.50;;;;;;5026056;28;20544;-81
2022/03/18 12:58:11;;;;;;;27.95;22.90;;;14.10;91.60;;;;;;5022525;28;20261;-86
2022/03/18 13:00:42;;;;;;;26.55;21.50;;;16.50;92.30;;;;;;5022770;28;20194;-82